sensor_id;sensor_type;location;lat;lon;timestamp;P1;durP1;ratioP1;P2;durP2;ratioP2
11111;SDS011;5609;49.466;8.468;2022-09-17T00:01:18;3.67;;;1.10;;
11111;SDS011;5609;49.466;8.468;2022-09-17T00:03:49;2.47;;;1.00;;
11111;SDS011;5609;49.466;8.468;2022-09-17T00:06:18;2.10;;;0.87;;
11111;SDS011;5609;49.466;8.468;2022-09-17T00:08:45;3.53;;;0.90;;
11111;SDS011;5609;49.466;8.468;2022-09-17T00:11:14;2.07;;;1.07;;
11111;SDS011;5609;49.466;8.468;2022-09-17T00:13:41;5.33;;;1.10;;
11111;SDS011;5609;49.466;8.468;2022-09-17T00:16:09;2.93;;;0.93;;
11111;SDS011;5609;49.466;8.468;2022-09-17T00:18:36;5.73;;;1.30;;
11111;SDS011;5609;49.466;8.468;2022-09-17T00:21:05;1.67;;;1.00;;
11111;SDS011;5609;49.466;8.468;2022-09-17T00:23:33;2.97;;;0.90;;
11111;SDS011;5609;49.466;8.468;2022-09-17T00:26:03;3.40;;;0.90;;
11111;SDS011;5609;49.466;8.468;2022-09-17T00:28:31;1.60;;;0.70;;
11111;SDS011;5609;49.466;8.468;2022-09-17T00:30:58;1.43;;;0.90;;
11111;SDS011;5609;49.466;8.468;2022-09-17T00:33:25;2.60;;;1.00;;
11111;SDS011;5609;49.466;8.468;2022-09-17T00:35:59;2.53;;;1.10;;
11111;SDS011;5609;49.466;8.468;2022-09-17T00:38:26;3.60;;;1.00;;
11111;SDS011;5609;49.466;8.468;2022-09-17T00:40:53;1.73;;;1.00;;
11111;SDS011;5609;49.466;8.468;2022-09-17T00:43:36;2.57;;;0.93;;
11111;SDS011;5609;49.466;8.468;2022-09-17T00:46:04;3.37;;;1.10;;
11111;SDS011;5609;49.466;8.468;2022-09-17T00:48:32;4.33;;;1.20;;
11111;SDS011;5609;49.466;8.468;2022-09-17T00:50:59;2.17;;;1.10;;
11111;SDS011;5609;49.466;8.468;2022-09-17T00:53:27;2.27;;;1.10;;
11111;SDS011;5609;49.466;8.468;2022-09-17T00:55:56;2.90;;;1.00;;
11111;SDS011;5609;49.466;8.468;2022-09-17T00:58:24;4.20;;;1.10;;
11111;SDS011;5609;49.466;8.468;2022-09-17T01:00:55;2.27;;;1.10;;
11111;SDS011;5609;49.466;8.468;2022-09-17T01:03:22;5.40;;;1.30;;
11111;SDS011;5609;49.466;8.468;2022-09-17T01:05:51;2.80;;;1.10;;
11111;SDS011;5609;49.466;8.468;2022-09-17T01:08:24;2.20;;;1.10;;
11111;SDS011;5609;49.466;8.468;2022-09-17T01:11:08;3.30;;;1.10;;
11111;SDS011;5609;49.466;8.468;2022-09-17T01:13:41;1.77;;;0.83;;
11111;SDS011;5609;49.466;8.468;2022-09-17T01:16:11;3.43;;;1.10;;
11111;SDS011;5609;49.466;8.468;2022-09-17T01:18:43;1.97;;;0.90;;
11111;SDS011;5609;49.466;8.468;2022-09-17T01:24:02;1.47;;;1.07;;
11111;SDS011;5609;49.466;8.468;2022-09-17T01:26:43;3.90;;;1.30;;
11111;SDS011;5609;49.466;8.468;2022-09-17T01:29:19;3.63;;;1.30;;
11111;SDS011;5609;49.466;8.468;2022-09-17T01:31:49;2.27;;;1.20;;
11111;SDS011;5609;49.466;8.468;2022-09-17T01:34:19;2.27;;;1.20;;
11111;SDS011;5609;49.466;8.468;2022-09-17T01:36:50;2.63;;;1.13;;
11111;SDS011;5609;49.466;8.468;2022-09-17T01:39:24;2.00;;;1.10;;
11111;SDS011;5609;49.466;8.468;2022-09-17T01:41:55;4.07;;;1.30;;
11111;SDS011;5609;49.466;8.468;2022-09-17T01:44:25;3.27;;;1.13;;
11111;SDS011;5609;49.466;8.468;2022-09-17T01:46:55;2.50;;;1.13;;
11111;SDS011;5609;49.466;8.468;2022-09-17T01:49:23;1.67;;;1.07;;
11111;SDS011;5609;49.466;8.468;2022-09-17T01:51:51;3.17;;;1.30;;
11111;SDS011;5609;49.466;8.468;2022-09-17T01:54:21;2.23;;;1.00;;
11111;SDS011;5609;49.466;8.468;2022-09-17T01:56:50;2.57;;;1.20;;
11111;SDS011;5609;49.466;8.468;2022-09-17T01:59:19;1.53;;;1.00;;
11111;SDS011;5609;49.466;8.468;2022-09-17T02:01:48;2.80;;;1.27;;
11111;SDS011;5609;49.466;8.468;2022-09-17T02:04:20;2.10;;;1.00;;
11111;SDS011;5609;49.466;8.468;2022-09-17T02:06:50;4.60;;;1.40;;
11111;SDS011;5609;49.466;8.468;2022-09-17T02:09:18;4.20;;;1.40;;
11111;SDS011;5609;49.466;8.468;2022-09-17T02:11:48;4.03;;;1.43;;
11111;SDS011;5609;49.466;8.468;2022-09-17T02:14:17;3.63;;;1.50;;
11111;SDS011;5609;49.466;8.468;2022-09-17T02:16:48;2.77;;;1.10;;
11111;SDS011;5609;49.466;8.468;2022-09-17T02:19:17;4.00;;;1.30;;
11111;SDS011;5609;49.466;8.468;2022-09-17T02:21:47;3.70;;;1.43;;
11111;SDS011;5609;49.466;8.468;2022-09-17T02:24:18;2.90;;;0.90;;
11111;SDS011;5609;49.466;8.468;2022-09-17T02:26:47;3.20;;;1.20;;
11111;SDS011;5609;49.466;8.468;2022-09-17T02:29:18;2.87;;;1.17;;
11111;SDS011;5609;49.466;8.468;2022-09-17T02:31:47;3.87;;;1.23;;
11111;SDS011;5609;49.466;8.468;2022-09-17T02:34:15;2.83;;;1.20;;
11111;SDS011;5609;49.466;8.468;2022-09-17T02:36:42;1.90;;;1.10;;
11111;SDS011;5609;49.466;8.468;2022-09-17T02:39:10;2.93;;;1.30;;
11111;SDS011;5609;49.466;8.468;2022-09-17T02:41:41;2.80;;;1.43;;
11111;SDS011;5609;49.466;8.468;2022-09-17T02:44:13;4.57;;;1.33;;
11111;SDS011;5609;49.466;8.468;2022-09-17T02:46:46;3.37;;;1.30;;
11111;SDS011;5609;49.466;8.468;2022-09-17T02:49:19;1.37;;;1.20;;
11111;SDS011;5609;49.466;8.468;2022-09-17T02:51:52;3.20;;;1.30;;
11111;SDS011;5609;49.466;8.468;2022-09-17T02:54:24;3.93;;;1.40;;
11111;SDS011;5609;49.466;8.468;2022-09-17T02:56:56;3.37;;;1.30;;
11111;SDS011;5609;49.466;8.468;2022-09-17T02:59:28;4.77;;;1.47;;
11111;SDS011;5609;49.466;8.468;2022-09-17T03:01:57;4.33;;;1.53;;
11111;SDS011;5609;49.466;8.468;2022-09-17T03:04:26;2.30;;;1.20;;
11111;SDS011;5609;49.466;8.468;2022-09-17T03:06:54;2.03;;;1.20;;
11111;SDS011;5609;49.466;8.468;2022-09-17T03:09:24;2.47;;;1.40;;
11111;SDS011;5609;49.466;8.468;2022-09-17T03:11:51;4.27;;;1.47;;
11111;SDS011;5609;49.466;8.468;2022-09-17T03:14:18;4.17;;;1.30;;
11111;SDS011;5609;49.466;8.468;2022-09-17T03:16:46;4.93;;;1.30;;
11111;SDS011;5609;49.466;8.468;2022-09-17T03:19:13;2.03;;;1.30;;
11111;SDS011;5609;49.466;8.468;2022-09-17T03:21:40;3.17;;;1.30;;
11111;SDS011;5609;49.466;8.468;2022-09-17T03:24:07;5.47;;;1.30;;
11111;SDS011;5609;49.466;8.468;2022-09-17T03:26:37;5.10;;;1.67;;
11111;SDS011;5609;49.466;8.468;2022-09-17T03:29:04;2.23;;;1.10;;
11111;SDS011;5609;49.466;8.468;2022-09-17T03:31:31;4.00;;;1.30;;
11111;SDS011;5609;49.466;8.468;2022-09-17T03:33:58;3.67;;;1.30;;
11111;SDS011;5609;49.466;8.468;2022-09-17T03:36:25;3.43;;;1.20;;
11111;SDS011;5609;49.466;8.468;2022-09-17T03:38:52;2.27;;;1.17;;
11111;SDS011;5609;49.466;8.468;2022-09-17T03:41:19;2.93;;;1.50;;
11111;SDS011;5609;49.466;8.468;2022-09-17T03:43:48;3.93;;;1.30;;
11111;SDS011;5609;49.466;8.468;2022-09-17T03:46:15;3.60;;;1.37;;
11111;SDS011;5609;49.466;8.468;2022-09-17T03:48:42;3.77;;;1.40;;
11111;SDS011;5609;49.466;8.468;2022-09-17T03:51:09;3.90;;;1.40;;
11111;SDS011;5609;49.466;8.468;2022-09-17T03:53:36;1.67;;;1.20;;
11111;SDS011;5609;49.466;8.468;2022-09-17T03:56:04;4.30;;;1.30;;
11111;SDS011;5609;49.466;8.468;2022-09-17T03:58:32;2.57;;;1.30;;
11111;SDS011;5609;49.466;8.468;2022-09-17T04:01:00;1.80;;;1.30;;
11111;SDS011;5609;49.466;8.468;2022-09-17T04:03:28;2.30;;;1.30;;
11111;SDS011;5609;49.466;8.468;2022-09-17T04:05:56;3.63;;;1.40;;
11111;SDS011;5609;49.466;8.468;2022-09-17T04:08:23;2.97;;;1.30;;
11111;SDS011;5609;49.466;8.468;2022-09-17T04:10:50;2.43;;;1.30;;
11111;SDS011;5609;49.466;8.468;2022-09-17T04:13:18;3.70;;;1.37;;
11111;SDS011;5609;49.466;8.468;2022-09-17T04:15:45;3.27;;;1.20;;
11111;SDS011;5609;49.466;8.468;2022-09-17T04:18:13;3.17;;;1.40;;
11111;SDS011;5609;49.466;8.468;2022-09-17T04:20:41;6.23;;;1.33;;
11111;SDS011;5609;49.466;8.468;2022-09-17T04:23:08;4.73;;;1.47;;
11111;SDS011;5609;49.466;8.468;2022-09-17T04:25:36;2.83;;;1.20;;
11111;SDS011;5609;49.466;8.468;2022-09-17T04:28:03;4.23;;;1.20;;
11111;SDS011;5609;49.466;8.468;2022-09-17T04:30:30;5.63;;;1.50;;
11111;SDS011;5609;49.466;8.468;2022-09-17T04:32:57;2.03;;;1.30;;
11111;SDS011;5609;49.466;8.468;2022-09-17T04:35:25;2.87;;;1.50;;
11111;SDS011;5609;49.466;8.468;2022-09-17T04:37:53;3.83;;;1.30;;
11111;SDS011;5609;49.466;8.468;2022-09-17T04:40:20;3.70;;;1.43;;
11111;SDS011;5609;49.466;8.468;2022-09-17T04:42:47;2.97;;;1.33;;
11111;SDS011;5609;49.466;8.468;2022-09-17T04:45:14;1.87;;;1.47;;
11111;SDS011;5609;49.466;8.468;2022-09-17T04:47:42;3.13;;;1.33;;
11111;SDS011;5609;49.466;8.468;2022-09-17T04:50:09;3.30;;;1.80;;
11111;SDS011;5609;49.466;8.468;2022-09-17T04:52:38;3.43;;;1.30;;
11111;SDS011;5609;49.466;8.468;2022-09-17T04:55:07;2.57;;;1.30;;
11111;SDS011;5609;49.466;8.468;2022-09-17T04:57:34;2.40;;;1.23;;
11111;SDS011;5609;49.466;8.468;2022-09-17T05:00:02;3.93;;;1.47;;
11111;SDS011;5609;49.466;8.468;2022-09-17T05:02:30;3.87;;;1.20;;
11111;SDS011;5609;49.466;8.468;2022-09-17T05:04:57;8.80;;;1.60;;
11111;SDS011;5609;49.466;8.468;2022-09-17T05:07:24;2.67;;;1.50;;
11111;SDS011;5609;49.466;8.468;2022-09-17T05:09:53;3.93;;;1.30;;
11111;SDS011;5609;49.466;8.468;2022-09-17T05:12:20;5.10;;;1.50;;
11111;SDS011;5609;49.466;8.468;2022-09-17T05:14:47;3.00;;;1.40;;
11111;SDS011;5609;49.466;8.468;2022-09-17T05:17:14;3.53;;;1.40;;
11111;SDS011;5609;49.466;8.468;2022-09-17T05:19:41;4.43;;;1.60;;
11111;SDS011;5609;49.466;8.468;2022-09-17T05:22:08;2.03;;;1.30;;
11111;SDS011;5609;49.466;8.468;2022-09-17T05:24:35;2.87;;;1.33;;
11111;SDS011;5609;49.466;8.468;2022-09-17T05:27:05;6.40;;;1.50;;
11111;SDS011;5609;49.466;8.468;2022-09-17T05:29:32;7.17;;;1.90;;
11111;SDS011;5609;49.466;8.468;2022-09-17T05:31:59;3.67;;;1.70;;
11111;SDS011;5609;49.466;8.468;2022-09-17T05:34:26;2.90;;;1.70;;
11111;SDS011;5609;49.466;8.468;2022-09-17T05:36:53;3.73;;;1.30;;
11111;SDS011;5609;49.466;8.468;2022-09-17T05:39:20;3.43;;;1.40;;
11111;SDS011;5609;49.466;8.468;2022-09-17T05:41:49;3.77;;;1.60;;
11111;SDS011;5609;49.466;8.468;2022-09-17T05:44:18;4.60;;;1.70;;
11111;SDS011;5609;49.466;8.468;2022-09-17T05:46:45;3.63;;;1.60;;
11111;SDS011;5609;49.466;8.468;2022-09-17T05:49:12;3.00;;;1.70;;
11111;SDS011;5609;49.466;8.468;2022-09-17T05:51:40;6.03;;;1.50;;
11111;SDS011;5609;49.466;8.468;2022-09-17T05:54:07;3.50;;;1.50;;
11111;SDS011;5609;49.466;8.468;2022-09-17T05:56:34;5.70;;;1.50;;
11111;SDS011;5609;49.466;8.468;2022-09-17T05:59:01;4.00;;;1.60;;
11111;SDS011;5609;49.466;8.468;2022-09-17T06:01:30;4.80;;;1.60;;
11111;SDS011;5609;49.466;8.468;2022-09-17T06:03:57;5.20;;;1.60;;
11111;SDS011;5609;49.466;8.468;2022-09-17T06:06:27;6.27;;;1.73;;
11111;SDS011;5609;49.466;8.468;2022-09-17T06:08:54;3.00;;;1.50;;
11111;SDS011;5609;49.466;8.468;2022-09-17T06:11:22;5.07;;;1.40;;
11111;SDS011;5609;49.466;8.468;2022-09-17T06:13:51;4.33;;;1.30;;
11111;SDS011;5609;49.466;8.468;2022-09-17T06:16:19;3.87;;;1.60;;
11111;SDS011;5609;49.466;8.468;2022-09-17T06:18:47;6.00;;;1.83;;
11111;SDS011;5609;49.466;8.468;2022-09-17T06:21:17;3.83;;;1.63;;
11111;SDS011;5609;49.466;8.468;2022-09-17T06:23:45;4.10;;;1.73;;
11111;SDS011;5609;49.466;8.468;2022-09-17T06:26:12;5.10;;;1.73;;
11111;SDS011;5609;49.466;8.468;2022-09-17T06:28:39;6.03;;;1.70;;
11111;SDS011;5609;49.466;8.468;2022-09-17T06:31:07;3.77;;;1.83;;
11111;SDS011;5609;49.466;8.468;2022-09-17T06:33:35;4.03;;;1.60;;
11111;SDS011;5609;49.466;8.468;2022-09-17T06:36:04;4.20;;;1.63;;
11111;SDS011;5609;49.466;8.468;2022-09-17T06:38:32;4.47;;;1.70;;
11111;SDS011;5609;49.466;8.468;2022-09-17T06:40:59;4.60;;;1.70;;
11111;SDS011;5609;49.466;8.468;2022-09-17T06:43:27;3.40;;;1.50;;
11111;SDS011;5609;49.466;8.468;2022-09-17T06:45:55;4.60;;;1.87;;
11111;SDS011;5609;49.466;8.468;2022-09-17T06:48:22;5.37;;;1.70;;
11111;SDS011;5609;49.466;8.468;2022-09-17T06:50:50;6.47;;;1.80;;
11111;SDS011;5609;49.466;8.468;2022-09-17T06:53:20;6.03;;;1.60;;
11111;SDS011;5609;49.466;8.468;2022-09-17T06:55:47;4.27;;;1.50;;
11111;SDS011;5609;49.466;8.468;2022-09-17T06:58:15;7.17;;;1.70;;
11111;SDS011;5609;49.466;8.468;2022-09-17T07:00:42;8.83;;;1.90;;
11111;SDS011;5609;49.466;8.468;2022-09-17T07:03:09;4.03;;;1.73;;
11111;SDS011;5609;49.466;8.468;2022-09-17T07:05:36;5.37;;;1.83;;
11111;SDS011;5609;49.466;8.468;2022-09-17T07:08:03;7.07;;;1.90;;
11111;SDS011;5609;49.466;8.468;2022-09-17T07:10:32;5.20;;;1.70;;
11111;SDS011;5609;49.466;8.468;2022-09-17T07:12:59;4.43;;;1.70;;
11111;SDS011;5609;49.466;8.468;2022-09-17T07:15:26;3.97;;;1.53;;
11111;SDS011;5609;49.466;8.468;2022-09-17T07:17:53;4.93;;;1.80;;
11111;SDS011;5609;49.466;8.468;2022-09-17T07:20:20;5.87;;;1.90;;
11111;SDS011;5609;49.466;8.468;2022-09-17T07:22:53;6.50;;;1.73;;
11111;SDS011;5609;49.466;8.468;2022-09-17T07:25:21;9.33;;;2.90;;
11111;SDS011;5609;49.466;8.468;2022-09-17T07:27:50;5.80;;;2.03;;
11111;SDS011;5609;49.466;8.468;2022-09-17T07:30:17;8.17;;;2.40;;
11111;SDS011;5609;49.466;8.468;2022-09-17T07:32:44;10.87;;;2.20;;
11111;SDS011;5609;49.466;8.468;2022-09-17T07:35:11;6.57;;;2.00;;
11111;SDS011;5609;49.466;8.468;2022-09-17T07:37:38;4.53;;;1.60;;
11111;SDS011;5609;49.466;8.468;2022-09-17T07:40:06;4.60;;;1.93;;
11111;SDS011;5609;49.466;8.468;2022-09-17T07:42:33;3.50;;;1.53;;
11111;SDS011;5609;49.466;8.468;2022-09-17T07:45:02;5.90;;;1.90;;
11111;SDS011;5609;49.466;8.468;2022-09-17T07:47:30;3.80;;;1.90;;
11111;SDS011;5609;49.466;8.468;2022-09-17T07:49:57;4.50;;;1.63;;
11111;SDS011;5609;49.466;8.468;2022-09-17T07:52:24;4.67;;;1.63;;
11111;SDS011;5609;49.466;8.468;2022-09-17T07:54:51;8.50;;;2.07;;
11111;SDS011;5609;49.466;8.468;2022-09-17T07:57:18;4.87;;;1.77;;
11111;SDS011;5609;49.466;8.468;2022-09-17T07:59:45;5.07;;;1.67;;
11111;SDS011;5609;49.466;8.468;2022-09-17T08:02:14;6.83;;;1.90;;
11111;SDS011;5609;49.466;8.468;2022-09-17T08:04:41;3.87;;;1.60;;
11111;SDS011;5609;49.466;8.468;2022-09-17T08:07:09;5.03;;;1.77;;
11111;SDS011;5609;49.466;8.468;2022-09-17T08:09:36;6.17;;;1.77;;
11111;SDS011;5609;49.466;8.468;2022-09-17T08:12:04;4.67;;;1.80;;
11111;SDS011;5609;49.466;8.468;2022-09-17T08:14:31;4.53;;;1.77;;
11111;SDS011;5609;49.466;8.468;2022-09-17T08:16:58;5.97;;;2.13;;
11111;SDS011;5609;49.466;8.468;2022-09-17T08:19:26;7.30;;;2.40;;
11111;SDS011;5609;49.466;8.468;2022-09-17T08:21:56;5.53;;;1.67;;
11111;SDS011;5609;49.466;8.468;2022-09-17T08:24:23;12.57;;;3.07;;
11111;SDS011;5609;49.466;8.468;2022-09-17T08:26:51;9.40;;;3.17;;
11111;SDS011;5609;49.466;8.468;2022-09-17T08:29:18;8.37;;;2.80;;
11111;SDS011;5609;49.466;8.468;2022-09-17T08:31:45;3.53;;;1.60;;
11111;SDS011;5609;49.466;8.468;2022-09-17T08:34:13;4.07;;;1.77;;
11111;SDS011;5609;49.466;8.468;2022-09-17T08:36:41;4.73;;;2.30;;
11111;SDS011;5609;49.466;8.468;2022-09-17T08:39:08;7.63;;;2.60;;
11111;SDS011;5609;49.466;8.468;2022-09-17T08:41:41;5.90;;;1.87;;
11111;SDS011;5609;49.466;8.468;2022-09-17T08:44:14;5.90;;;1.57;;
11111;SDS011;5609;49.466;8.468;2022-09-17T08:46:45;6.73;;;1.90;;
11111;SDS011;5609;49.466;8.468;2022-09-17T08:49:15;6.83;;;1.70;;
11111;SDS011;5609;49.466;8.468;2022-09-17T08:51:51;4.47;;;1.60;;
11111;SDS011;5609;49.466;8.468;2022-09-17T08:54:24;4.43;;;1.57;;
11111;SDS011;5609;49.466;8.468;2022-09-17T08:56:57;8.20;;;1.80;;
11111;SDS011;5609;49.466;8.468;2022-09-17T08:59:29;5.73;;;1.70;;
11111;SDS011;5609;49.466;8.468;2022-09-17T09:02:06;6.40;;;1.60;;
11111;SDS011;5609;49.466;8.468;2022-09-17T09:04:47;5.67;;;1.47;;
11111;SDS011;5609;49.466;8.468;2022-09-17T09:07:22;4.80;;;1.60;;
11111;SDS011;5609;49.466;8.468;2022-09-17T09:09:52;4.00;;;1.70;;
11111;SDS011;5609;49.466;8.468;2022-09-17T09:12:21;4.33;;;1.70;;
11111;SDS011;5609;49.466;8.468;2022-09-17T09:14:50;4.60;;;1.67;;
11111;SDS011;5609;49.466;8.468;2022-09-17T09:17:20;4.00;;;1.47;;
11111;SDS011;5609;49.466;8.468;2022-09-17T09:19:48;6.97;;;1.70;;
11111;SDS011;5609;49.466;8.468;2022-09-17T09:25:02;5.40;;;1.60;;
11111;SDS011;5609;49.466;8.468;2022-09-17T09:27:32;5.57;;;1.70;;
11111;SDS011;5609;49.466;8.468;2022-09-17T09:30:04;4.63;;;1.60;;
11111;SDS011;5609;49.466;8.468;2022-09-17T09:32:44;4.50;;;1.63;;
11111;SDS011;5609;49.466;8.468;2022-09-17T09:35:14;3.07;;;1.50;;
11111;SDS011;5609;49.466;8.468;2022-09-17T09:37:42;3.60;;;1.50;;
11111;SDS011;5609;49.466;8.468;2022-09-17T09:40:18;4.47;;;1.50;;
11111;SDS011;5609;49.466;8.468;2022-09-17T09:42:47;2.90;;;1.40;;
11111;SDS011;5609;49.466;8.468;2022-09-17T09:45:15;9.10;;;1.63;;
11111;SDS011;5609;49.466;8.468;2022-09-17T09:47:46;4.63;;;1.40;;
11111;SDS011;5609;49.466;8.468;2022-09-17T09:50:23;5.47;;;1.50;;
11111;SDS011;5609;49.466;8.468;2022-09-17T09:52:55;4.97;;;1.40;;
11111;SDS011;5609;49.466;8.468;2022-09-17T09:55:33;4.07;;;1.40;;
11111;SDS011;5609;49.466;8.468;2022-09-17T09:58:04;4.43;;;1.30;;
11111;SDS011;5609;49.466;8.468;2022-09-17T10:00:35;4.03;;;1.40;;
11111;SDS011;5609;49.466;8.468;2022-09-17T10:03:04;3.13;;;1.30;;
11111;SDS011;5609;49.466;8.468;2022-09-17T10:05:35;3.13;;;1.33;;
11111;SDS011;5609;49.466;8.468;2022-09-17T10:08:09;5.93;;;1.70;;
11111;SDS011;5609;49.466;8.468;2022-09-17T10:10:39;5.53;;;1.50;;
11111;SDS011;5609;49.466;8.468;2022-09-17T10:13:19;3.47;;;1.13;;
11111;SDS011;5609;49.466;8.468;2022-09-17T10:15:46;3.70;;;1.20;;
11111;SDS011;5609;49.466;8.468;2022-09-17T10:18:17;5.13;;;1.40;;
11111;SDS011;5609;49.466;8.468;2022-09-17T10:20:48;4.00;;;1.47;;
11111;SDS011;5609;49.466;8.468;2022-09-17T10:23:15;4.40;;;1.30;;
11111;SDS011;5609;49.466;8.468;2022-09-17T10:25:44;5.17;;;1.60;;
11111;SDS011;5609;49.466;8.468;2022-09-17T10:28:21;4.33;;;1.40;;
11111;SDS011;5609;49.466;8.468;2022-09-17T10:30:56;4.53;;;1.30;;
11111;SDS011;5609;49.466;8.468;2022-09-17T10:33:24;3.40;;;1.57;;
11111;SDS011;5609;49.466;8.468;2022-09-17T10:35:53;5.40;;;1.50;;
11111;SDS011;5609;49.466;8.468;2022-09-17T10:38:25;4.23;;;1.50;;
11111;SDS011;5609;49.466;8.468;2022-09-17T10:40:54;3.93;;;1.30;;
11111;SDS011;5609;49.466;8.468;2022-09-17T10:43:32;3.60;;;1.20;;
11111;SDS011;5609;49.466;8.468;2022-09-17T10:45:59;4.13;;;1.50;;
11111;SDS011;5609;49.466;8.468;2022-09-17T10:48:27;3.17;;;1.20;;
11111;SDS011;5609;49.466;8.468;2022-09-17T10:50:56;3.90;;;1.30;;
11111;SDS011;5609;49.466;8.468;2022-09-17T10:53:25;3.67;;;1.27;;
11111;SDS011;5609;49.466;8.468;2022-09-17T10:55:56;3.87;;;1.13;;
11111;SDS011;5609;49.466;8.468;2022-09-17T10:58:28;4.00;;;1.30;;
11111;SDS011;5609;49.466;8.468;2022-09-17T11:01:01;3.03;;;1.13;;
11111;SDS011;5609;49.466;8.468;2022-09-17T11:03:47;3.47;;;1.43;;
11111;SDS011;5609;49.466;8.468;2022-09-17T11:06:23;3.93;;;1.30;;
11111;SDS011;5609;49.466;8.468;2022-09-17T11:08:55;4.53;;;1.27;;
11111;SDS011;5609;49.466;8.468;2022-09-17T11:11:30;4.23;;;1.30;;
11111;SDS011;5609;49.466;8.468;2022-09-17T11:14:01;3.57;;;1.07;;
11111;SDS011;5609;49.466;8.468;2022-09-17T11:16:31;1.80;;;0.90;;
11111;SDS011;5609;49.466;8.468;2022-09-17T11:19:03;4.27;;;1.33;;
11111;SDS011;5609;49.466;8.468;2022-09-17T11:21:39;2.30;;;0.83;;
11111;SDS011;5609;49.466;8.468;2022-09-17T11:24:14;2.33;;;1.00;;
11111;SDS011;5609;49.466;8.468;2022-09-17T11:26:47;2.23;;;0.90;;
11111;SDS011;5609;49.466;8.468;2022-09-17T11:29:23;2.33;;;0.77;;
11111;SDS011;5609;49.466;8.468;2022-09-17T11:31:54;3.20;;;1.23;;
11111;SDS011;5609;49.466;8.468;2022-09-17T11:34:27;2.93;;;1.80;;
11111;SDS011;5609;49.466;8.468;2022-09-17T11:36:57;3.57;;;1.20;;
11111;SDS011;5609;49.466;8.468;2022-09-17T11:39:26;3.40;;;1.30;;
11111;SDS011;5609;49.466;8.468;2022-09-17T11:41:59;3.53;;;1.00;;
11111;SDS011;5609;49.466;8.468;2022-09-17T11:44:27;2.03;;;1.00;;
11111;SDS011;5609;49.466;8.468;2022-09-17T11:46:58;1.97;;;0.97;;
11111;SDS011;5609;49.466;8.468;2022-09-17T11:49:31;2.63;;;0.97;;
11111;SDS011;5609;49.466;8.468;2022-09-17T11:52:00;3.27;;;1.30;;
11111;SDS011;5609;49.466;8.468;2022-09-17T11:54:30;3.47;;;1.20;;
11111;SDS011;5609;49.466;8.468;2022-09-17T11:57:02;2.87;;;1.10;;
11111;SDS011;5609;49.466;8.468;2022-09-17T11:59:32;2.90;;;1.10;;
11111;SDS011;5609;49.466;8.468;2022-09-17T12:02:02;3.33;;;1.00;;
11111;SDS011;5609;49.466;8.468;2022-09-17T12:04:36;1.97;;;1.00;;
11111;SDS011;5609;49.466;8.468;2022-09-17T12:07:07;2.67;;;1.00;;
11111;SDS011;5609;49.466;8.468;2022-09-17T12:09:37;2.60;;;1.40;;
11111;SDS011;5609;49.466;8.468;2022-09-17T12:12:11;2.30;;;1.00;;
11111;SDS011;5609;49.466;8.468;2022-09-17T12:14:42;2.80;;;1.10;;
11111;SDS011;5609;49.466;8.468;2022-09-17T12:17:11;4.50;;;1.10;;
11111;SDS011;5609;49.466;8.468;2022-09-17T12:19:40;2.53;;;0.90;;
11111;SDS011;5609;49.466;8.468;2022-09-17T12:22:09;2.10;;;1.00;;
11111;SDS011;5609;49.466;8.468;2022-09-17T12:24:39;2.60;;;1.00;;
11111;SDS011;5609;49.466;8.468;2022-09-17T12:27:11;2.27;;;1.10;;
11111;SDS011;5609;49.466;8.468;2022-09-17T12:32:33;1.70;;;0.83;;
11111;SDS011;5609;49.466;8.468;2022-09-17T12:35:02;2.90;;;0.90;;
11111;SDS011;5609;49.466;8.468;2022-09-17T12:37:34;3.10;;;0.87;;
11111;SDS011;5609;49.466;8.468;2022-09-17T12:40:10;3.03;;;1.03;;
11111;SDS011;5609;49.466;8.468;2022-09-17T12:42:48;2.63;;;1.10;;
11111;SDS011;5609;49.466;8.468;2022-09-17T12:45:24;4.47;;;1.30;;
11111;SDS011;5609;49.466;8.468;2022-09-17T12:50:45;4.23;;;1.20;;
11111;SDS011;5609;49.466;8.468;2022-09-17T12:53:16;4.07;;;1.80;;
11111;SDS011;5609;49.466;8.468;2022-09-17T12:55:49;2.20;;;1.10;;
11111;SDS011;5609;49.466;8.468;2022-09-17T12:58:25;2.63;;;0.80;;
11111;SDS011;5609;49.466;8.468;2022-09-17T13:01:00;4.87;;;2.77;;
11111;SDS011;5609;49.466;8.468;2022-09-17T13:03:29;1.23;;;0.80;;
11111;SDS011;5609;49.466;8.468;2022-09-17T13:08:54;1.67;;;0.80;;
11111;SDS011;5609;49.466;8.468;2022-09-17T13:11:29;1.60;;;0.87;;
11111;SDS011;5609;49.466;8.468;2022-09-17T13:14:04;2.10;;;0.93;;
11111;SDS011;5609;49.466;8.468;2022-09-17T13:16:35;2.67;;;0.90;;
11111;SDS011;5609;49.466;8.468;2022-09-17T13:19:06;2.97;;;1.00;;
11111;SDS011;5609;49.466;8.468;2022-09-17T13:21:42;1.87;;;0.80;;
11111;SDS011;5609;49.466;8.468;2022-09-17T13:24:19;2.23;;;1.10;;
11111;SDS011;5609;49.466;8.468;2022-09-17T13:26:49;1.13;;;0.50;;
11111;SDS011;5609;49.466;8.468;2022-09-17T13:32:01;2.17;;;0.90;;
11111;SDS011;5609;49.466;8.468;2022-09-17T13:34:29;2.53;;;0.93;;
11111;SDS011;5609;49.466;8.468;2022-09-17T13:36:56;1.50;;;0.73;;
11111;SDS011;5609;49.466;8.468;2022-09-17T13:39:40;1.90;;;0.77;;
11111;SDS011;5609;49.466;8.468;2022-09-17T13:42:09;2.57;;;0.90;;
11111;SDS011;5609;49.466;8.468;2022-09-17T13:44:38;1.07;;;0.63;;
11111;SDS011;5609;49.466;8.468;2022-09-17T13:47:09;1.70;;;0.60;;
11111;SDS011;5609;49.466;8.468;2022-09-17T13:49:42;1.13;;;0.67;;
11111;SDS011;5609;49.466;8.468;2022-09-17T13:52:09;2.23;;;0.80;;
11111;SDS011;5609;49.466;8.468;2022-09-17T13:54:36;3.00;;;0.90;;
11111;SDS011;5609;49.466;8.468;2022-09-17T13:57:08;1.37;;;0.80;;
11111;SDS011;5609;49.466;8.468;2022-09-17T13:59:36;2.10;;;0.80;;
11111;SDS011;5609;49.466;8.468;2022-09-17T14:04:47;1.70;;;0.73;;
11111;SDS011;5609;49.466;8.468;2022-09-17T14:07:32;2.60;;;0.90;;
11111;SDS011;5609;49.466;8.468;2022-09-17T14:09:59;1.17;;;0.60;;
11111;SDS011;5609;49.466;8.468;2022-09-17T14:15:33;2.10;;;0.73;;
11111;SDS011;5609;49.466;8.468;2022-09-17T14:18:01;0.97;;;0.40;;
11111;SDS011;5609;49.466;8.468;2022-09-17T14:20:32;1.53;;;0.60;;
11111;SDS011;5609;49.466;8.468;2022-09-17T14:23:00;1.80;;;0.50;;
11111;SDS011;5609;49.466;8.468;2022-09-17T14:25:31;1.03;;;0.50;;
11111;SDS011;5609;49.466;8.468;2022-09-17T14:28:00;2.47;;;0.57;;
11111;SDS011;5609;49.466;8.468;2022-09-17T14:30:30;1.60;;;0.70;;
11111;SDS011;5609;49.466;8.468;2022-09-17T14:33:01;1.00;;;0.70;;
11111;SDS011;5609;49.466;8.468;2022-09-17T14:35:30;1.80;;;0.50;;
11111;SDS011;5609;49.466;8.468;2022-09-17T14:38:01;0.80;;;0.60;;
11111;SDS011;5609;49.466;8.468;2022-09-17T14:40:29;1.00;;;0.40;;
11111;SDS011;5609;49.466;8.468;2022-09-17T14:42:58;1.43;;;0.60;;
11111;SDS011;5609;49.466;8.468;2022-09-17T14:45:26;2.70;;;0.50;;
11111;SDS011;5609;49.466;8.468;2022-09-17T14:50:39;1.27;;;0.50;;
11111;SDS011;5609;49.466;8.468;2022-09-17T14:53:11;1.20;;;0.40;;
11111;SDS011;5609;49.466;8.468;2022-09-17T14:55:40;1.57;;;0.57;;
11111;SDS011;5609;49.466;8.468;2022-09-17T14:58:18;0.93;;;0.33;;
11111;SDS011;5609;49.466;8.468;2022-09-17T15:00:50;0.93;;;0.30;;
11111;SDS011;5609;49.466;8.468;2022-09-17T15:03:19;1.63;;;0.60;;
11111;SDS011;5609;49.466;8.468;2022-09-17T15:05:46;1.47;;;0.60;;
11111;SDS011;5609;49.466;8.468;2022-09-17T15:08:17;0.70;;;0.40;;
11111;SDS011;5609;49.466;8.468;2022-09-17T15:10:46;1.97;;;0.73;;
11111;SDS011;5609;49.466;8.468;2022-09-17T15:13:15;1.40;;;0.67;;
11111;SDS011;5609;49.466;8.468;2022-09-17T15:15:49;1.33;;;0.70;;
11111;SDS011;5609;49.466;8.468;2022-09-17T15:18:17;1.17;;;0.70;;
11111;SDS011;5609;49.466;8.468;2022-09-17T15:20:45;1.90;;;0.70;;
11111;SDS011;5609;49.466;8.468;2022-09-17T15:23:14;1.30;;;0.63;;
11111;SDS011;5609;49.466;8.468;2022-09-17T15:25:44;1.33;;;0.67;;
11111;SDS011;5609;49.466;8.468;2022-09-17T15:28:16;1.77;;;0.70;;
11111;SDS011;5609;49.466;8.468;2022-09-17T15:30:44;1.50;;;0.70;;
11111;SDS011;5609;49.466;8.468;2022-09-17T15:33:15;1.27;;;0.70;;
11111;SDS011;5609;49.466;8.468;2022-09-17T15:35:56;1.43;;;0.83;;
11111;SDS011;5609;49.466;8.468;2022-09-17T15:38:25;1.30;;;0.70;;
11111;SDS011;5609;49.466;8.468;2022-09-17T15:40:54;1.57;;;0.80;;